Time;durP1;ratioP1;P1;durP2;ratioP2;P2;SDS_P1;SDS_P2;PMS_P1;PMS_P2;Temp;Humidity;BMP_temperature;BMP_pressure;BME280_temperature;BME280_humidity;BME280_pressure;Samples;Min_cycle;Max_cycle;Signal;HPM_P1;HPM_P2
2023/06/03 07:23:22;;;;;;;5.32;3.50;;;;;;;-145.79;42.45;77741.88;5322466;27;20335;-68
2023/06/03 07:25:54;;;;;;;;;;;;;;;-145.79;44.08;77733.38;5310375;28;20486;-68
2023/06/03 07:28:31;;;;;;;4.57;2.70;;;;;;;-145.79;43.55;77722.78;5321421;28;19953;-68
2023/06/03 07:31:06;;;;;;;6.00;3.40;;;;;;;-145.79;42.31;77720.66;5321662;28;20031;-68
2023/06/03 07:33:45;;;;;;;5.55;3.15;;;;;;;-145.79;42.33;77699.47;5321101;28;20352;-69
2023/06/03 07:36:21;;;;;;;3.85;3.03;;;;;;;-145.79;42.80;77680.38;5321619;28;20106;-65
2023/06/03 07:38:57;;;;;;;4.88;2.70;;;;;;;-145.79;41.70;77671.91;5308498;28;20363;-67
2023/06/03 07:41:33;;;;;;;;;;;;;;;-145.79;41.41;77661.31;5310236;28;20028;-67
2023/06/03 07:44:07;;;;;;;5.40;2.30;;;;;;;-145.79;40.95;77648.59;5312196;28;19911;-66
2023/06/03 07:46:41;;;;;;;5.28;2.15;;;;;;;-145.79;39.56;77642.25;5319994;28;20480;-66
2023/06/03 07:49:14;;;;;;;6.55;2.42;;;;;;;-145.79;40.30;77621.03;5320865;28;20035;-66
2023/06/03 07:51:50;;;;;;;4.00;2.60;;;;;;;-145.79;39.81;77616.81;5321132;28;20016;-66
2023/06/03 07:54:22;;;;;;;5.35;2.08;;;;;;;-145.79;40.56;77593.47;5320914;28;20032;-67
2023/06/03 07:56:55;;;;;;;4.40;2.45;;;;;;;-145.79;38.82;77597.72;5304203;28;20031;-66
2023/06/03 07:59:29;;;;;;;32.00;27.63;;;;;;;-145.79;37.05;77597.72;5319059;28;20379;-66
2023/06/03 08:02:00;;;;;;;4.82;2.78;;;;;;;-145.79;40.28;77561.69;5318278;28;20026;-66
2023/06/03 08:04:33;;;;;;;6.68;2.10;;;;;;;-145.79;37.45;77563.81;5320479;28;20467;-66
2023/06/03 08:07:05;;;;;;;5.30;1.90;;;;;;;-145.79;36.35;77559.56;5320953;28;20036;-67
2023/06/03 08:09:37;;;;;;;5.38;2.10;;;;;;;-145.79;36.29;77555.31;5320430;28;20477;-67
2023/06/03 08:12:09;;;;;;;2.00;1.73;;;;;;;-145.79;35.56;77546.84;5309046;28;20032;-66
2023/06/03 08:14:40;;;;;;;2.72;1.98;;;;;;;-145.79;37.48;77536.25;5313932;28;20021;-66
2023/06/03 08:17:15;;;;;;;6.03;2.08;;;;;;;-145.79;35.65;77521.41;5304800;28;20463;-68
2023/06/03 08:19:47;;;;;;;4.47;1.60;;;;;;;-145.79;35.95;77508.69;5320798;28;20023;-65
2023/06/03 08:22:29;;;;;;;3.85;1.80;;;;;;;-145.79;35.40;77498.09;5318246;28;20112;-65
2023/06/03 08:25:00;;;;;;;3.85;1.75;;;;;;;-145.79;34.02;77510.81;5299673;28;20047;-65
2023/06/03 08:27:32;;;;;;;3.08;2.08;;;;;;;-145.79;37.10;77485.38;5302641;28;20024;-66
2023/06/03 08:30:04;;;;;;;2.65;1.85;;;;;;;-145.79;36.78;77470.53;5304469;28;20051;-66
2023/06/03 08:32:39;;;;;;;4.35;1.52;;;;;;;-145.79;35.09;77470.53;5304959;28;20028;-65
2023/06/03 08:35:19;;;;;;;20.67;18.52;;;;;;;-145.79;34.51;77470.53;5285412;28;20029;-65
2023/06/03 08:37:50;;;;;;;2.42;2.13;;;;;;;-145.79;34.67;77462.06;5284427;28;20033;-66
2023/06/03 08:40:25;;;;;;;4.97;1.80;;;;;;;-145.79;33.27;77457.81;5285872;28;20021;-66
2023/06/03 08:43:02;;;;;;;3.00;1.67;;;;;;;-145.79;33.88;77449.34;5285218;28;20499;-65
2023/06/03 08:46:05;;;;;;;3.13;2.38;;;;;;;-145.79;33.57;77449.34;5284761;28;20142;-68
2023/06/03 08:48:46;;;;;;;9.55;2.20;;;;;;;-145.79;33.80;77438.75;5285597;28;20024;-66
2023/06/03 08:51:22;;;;;;;3.47;1.65;;;;;;;-145.79;33.37;77423.91;5297475;28;20032;-66
2023/06/03 08:53:53;;;;;;;2.22;1.60;;;;;;;-145.79;34.21;77415.44;5284668;28;20119;-65
2023/06/03 08:56:27;;;;;;;5.18;1.90;;;;;;;-145.79;32.96;77402.72;5294263;28;20490;-65
2023/06/03 08:59:01;;;;;;;4.18;2.33;;;;;;;-145.79;33.43;77419.66;5305348;28;20024;-66
2023/06/03 09:01:36;;;;;;;6.57;4.43;;;;;;;-145.79;33.45;77402.72;5292185;28;20028;-65
2023/06/03 09:04:11;;;;;;;3.90;1.70;;;;;;;-145.79;32.82;77404.84;5318803;28;20111;-66
2023/06/03 09:06:45;;;;;;;4.28;1.92;;;;;;;-145.79;32.75;77381.50;5291041;28;20298;-66
2023/06/03 09:09:18;;;;;;;3.50;1.45;;;;;;;-145.79;32.75;77390.00;5285349;28;20399;-65
2023/06/03 09:11:50;;;;;;;4.28;1.80;;;;;;;-145.79;33.41;77373.03;5282935;28;20039;-64
2023/06/03 09:14:22;;;;;;;7.20;2.33;;;;;;;-145.79;33.05;77368.78;5288645;28;20016;-65
2023/06/03 09:16:53;;;;;;;2.67;1.73;;;;;;;-145.79;32.98;77356.06;5304485;28;20479;-64
2023/06/03 09:19:26;;;;;;;3.55;1.75;;;;;;;-145.79;32.53;77362.44;5291638;28;20056;-66
2023/06/03 09:21:59;;;;;;;3.17;1.80;;;;;;;-145.79;33.13;77351.84;5301844;28;20483;-68
2023/06/03 09:24:31;;;;;;;4.43;1.92;;;;;;;-145.79;31.16;77356.06;5301840;28;20106;-66
2023/06/03 09:27:03;;;;;;;4.40;2.00;;;;;;;-145.79;31.00;77368.78;5297308;27;20032;-64
2023/06/03 09:29:34;;;;;;;4.38;1.75;;;;;;;-145.79;30.98;77366.69;5302066;28;20024;-64
2023/06/03 09:32:07;;;;;;;6.03;1.75;;;;;;;-145.79;32.15;77364.56;5303530;28;20020;-64
2023/06/03 09:34:39;;;;;;;2.30;1.58;;;;;;;-145.79;32.28;77351.84;5300792;28;20024;-65
2023/06/03 09:37:10;;;;;;;2.47;1.58;;;;;;;-145.79;31.50;77353.97;5295294;28;20088;-65
2023/06/03 09:39:42;;;;;;;7.28;3.22;;;;;;;-145.79;30.88;77343.38;5295344;28;20114;-64
2023/06/03 09:42:15;;;;;;;6.07;3.40;;;;;;;-145.79;30.03;77339.13;5304852;28;20104;-65
2023/06/03 09:44:55;;;;;;;7.65;1.45;;;;;;;-145.79;30.03;77341.25;5293482;28;20039;-65
2023/06/03 09:47:35;;;;;;;3.90;1.58;;;;;;;-145.79;30.48;77330.66;5303292;28;20051;-65
2023/06/03 09:50:08;;;;;;;4.60;1.73;;;;;;;-145.79;31.45;77339.13;5305017;28;20057;-67
2023/06/03 09:52:39;;;;;;;3.75;1.70;;;;;;;-145.79;30.31;77326.41;5304916;28;20035;-65
2023/06/03 09:55:12;;;;;;;6.35;1.88;;;;;;;-145.79;30.50;77313.69;5304095;28;20032;-66
2023/06/03 09:58:03;;;;;;;2.55;1.45;;;;;;;-145.79;30.48;77303.09;5291721;28;20053;-66
2023/06/03 10:00:49;;;;;;;6.15;3.33;;;;;;;-145.79;30.07;77300.97;5291333;28;20456;-66
2023/06/03 10:03:25;;;;;;;3.42;1.33;;;;;;;-145.79;29.58;77305.22;5289492;28;20024;-65
2023/06/03 10:05:56;;;;;;;2.70;1.38;;;;;;;-145.79;28.99;77303.09;5297276;28;20046;-66
2023/06/03 10:08:31;;;;;;;4.07;1.95;;;;;;;-145.79;29.36;77296.72;5302136;28;20101;-66
2023/06/03 10:11:02;;;;;;;3.80;1.30;;;;;;;-145.79;29.26;77298.84;5283636;28;20384;-66
2023/06/03 10:13:34;;;;;;;2.92;1.40;;;;;;;-145.79;28.91;77294.59;5286315;28;20017;-66
2023/06/03 10:16:11;;;;;;;1.95;1.20;;;;;;;-145.79;28.85;77288.25;5303064;28;20025;-67
2023/06/03 10:18:43;;;;;;;2.03;1.40;;;;;;;-145.79;28.73;77271.28;5304646;28;20023;-67
2023/06/03 10:21:15;;;;;;;2.60;1.45;;;;;;;-145.79;29.07;77292.50;5297204;28;20044;-66
2023/06/03 10:23:48;;;;;;;2.88;1.48;;;;;;;-145.79;29.04;77288.25;5282934;28;20032;-66
2023/06/03 10:26:21;;;;;;;3.45;1.67;;;;;;;-145.79;28.71;77271.28;5283217;28;20031;-67
2023/06/03 10:28:53;;;;;;;2.60;1.80;;;;;;;-145.79;28.26;77267.06;5282346;28;20024;-66
2023/06/03 10:31:25;;;;;;;1.80;1.25;;;;;;;-145.79;28.66;77262.81;5283890;28;20412;-66
2023/06/03 10:33:57;;;;;;;3.70;1.23;;;;;;;-145.79;27.78;77269.19;5281404;28;20028;-66
2023/06/03 10:36:29;;;;;;;1.88;1.17;;;;;;;-145.79;27.71;77267.06;5280276;28;20456;-66
2023/06/03 10:39:08;;;;;;;2.80;1.20;;;;;;;-145.79;28.48;77247.97;5280606;28;20020;-66
2023/06/03 10:41:41;;;;;;;2.58;1.60;;;;;;;-145.79;29.64;77235.25;5280920;28;20214;-66
2023/06/03 10:44:12;;;;;;;2.75;1.02;;;;;;;-145.79;28.82;77224.66;5279961;28;20021;-66
2023/06/03 10:46:50;;;;;;;3.83;1.90;;;;;;;-145.79;29.72;77207.72;5280740;28;20092;-66
2023/06/03 10:49:25;;;;;;;1.50;1.00;;;;;;;-145.79;27.45;77231.03;5288474;28;20020;-66
2023/06/03 10:52:13;;;;;;;2.15;1.20;;;;;;;-145.79;28.02;77211.94;5303279;28;20077;-67
2023/06/03 10:54:50;;;;;;;2.65;1.20;;;;;;;-145.79;28.22;77199.22;5302509;28;20475;-67
2023/06/03 10:57:32;;;;;;;6.25;4.72;;;;;;;-145.79;28.82;77192.88;5302888;28;20055;-66
2023/06/03 11:00:06;;;;;;;4.63;1.73;;;;;;;-145.79;29.47;77186.50;5303662;28;20395;-67
2023/06/03 11:03:04;;;;;;;4.55;1.30;;;;;;;-145.79;29.29;77169.56;5303978;28;20471;-66
2023/06/03 11:05:35;;;;;;;3.90;1.40;;;;;;;-145.79;27.38;77178.03;5290631;28;20048;-65
2023/06/03 11:08:06;;;;;;;1.98;1.20;;;;;;;-145.79;27.17;77182.28;5282489;28;20059;-66
2023/06/03 11:10:40;;;;;;;1.38;1.00;;;;;;;-145.79;26.90;77156.84;5302040;28;20028;-66
2023/06/03 11:13:39;;;;;;;3.35;1.67;;;;;;;-145.79;26.76;77175.91;5300888;28;20028;-66
2023/06/03 11:16:10;;;;;;;2.63;1.20;;;;;;;-145.79;27.32;77165.31;5303469;28;20391;-66
2023/06/03 11:18:42;;;;;;;2.53;1.00;;;;;;;-145.79;27.75;77152.59;5302736;28;20047;-67
2023/06/03 11:21:45;;;;;;;4.00;1.35;;;;;;;-145.79;27.35;77127.16;5302827;28;20036;-67
2023/06/03 11:24:43;;;;;;;4.88;1.17;;;;;;;-145.79;26.65;77135.66;5282285;28;20086;-66
2023/06/03 11:27:14;;;;;;;1.85;1.10;;;;;;;-145.79;26.67;77125.03;5286905;28;20032;-66
2023/06/03 11:29:51;;;;;;;1.27;1.13;;;;;;;-145.79;26.14;77122.94;5303149;28;20467;-66
2023/06/03 11:32:36;;;;;;;6.22;4.45;;;;;;;-145.79;26.79;77110.22;5302866;28;20032;-66
2023/06/03 11:35:07;;;;;;;3.45;1.85;;;;;;;-145.79;26.34;77118.69;5303353;28;20012;-66
2023/06/03 11:37:52;;;;;;;3.53;1.40;;;;;;;-145.79;26.39;77114.44;5303568;28;20032;-65
2023/06/03 11:40:44;;;;;;;2.75;2.15;;;;;;;-145.79;26.81;77099.63;5284441;28;20279;-65
2023/06/03 11:43:15;;;;;;;1.55;1.08;;;;;;;-145.79;26.42;77112.31;5282395;28;20050;-66
2023/06/03 11:45:47;;;;;;;2.63;1.20;;;;;;;-145.79;26.33;77091.13;5288529;28;20024;-67
2023/06/03 11:48:29;;;;;;;3.45;1.17;;;;;;;-145.79;26.39;77082.66;5290943;28;20033;-66
2023/06/03 11:51:00;;;;;;;4.80;1.98;;;;;;;-145.79;26.53;77078.41;5298099;28;20478;-66
2023/06/03 11:53:40;;;;;;;1.83;1.42;;;;;;;-145.79;26.38;77084.78;5285927;28;20040;-66
2023/06/03 11:56:12;;;;;;;3.70;1.08;;;;;;;-145.79;26.41;77063.59;5290122;28;20028;-66
2023/06/03 11:58:51;;;;;;;1.35;1.15;;;;;;;-145.79;27.01;77050.88;5303134;28;20109;-65
2023/06/03 12:01:23;;;;;;;2.20;1.30;;;;;;;-145.79;26.13;77063.59;5288995;28;20084;-64
2023/06/03 12:04:01;;;;;;;7.30;2.65;;;;;;;-145.79;27.31;77042.38;5294829;28;20437;-65
2023/06/03 12:06:36;;;;;;;2.55;1.40;;;;;;;-145.79;26.73;77042.38;5279853;28;20021;-65
2023/06/03 12:09:08;;;;;;;4.50;1.70;;;;;;;-145.79;26.75;77036.03;5283706;28;20383;-66
2023/06/03 12:11:42;;;;;;;1.70;1.35;;;;;;;-145.79;27.42;77040.25;5289263;28;20041;-66
2023/06/03 12:14:32;;;;;;;13.07;11.73;;;;;;;-145.79;27.34;77008.47;5286047;28;20024;-66
2023/06/03 12:17:18;;;;;;;2.00;1.63;;;;;;;-145.79;27.95;77029.66;5284789;28;20432;-67
2023/06/03 12:19:51;;;;;;;1.80;1.30;;;;;;;-145.79;26.89;77055.09;5284575;28;20035;-65
2023/06/03 12:22:25;;;;;;;3.03;1.48;;;;;;;-145.79;27.01;77029.66;5284401;28;20052;-66
2023/06/03 12:24:56;;;;;;;2.55;1.80;;;;;;;-145.79;26.96;76987.28;5284960;28;20070;-66
2023/06/03 12:27:29;;;;;;;1.60;1.27;;;;;;;-145.79;26.93;76976.69;5285395;28;20468;-65
2023/06/03 12:30:02;;;;;;;2.42;1.17;;;;;;;-145.79;27.08;76961.84;5288404;28;20031;-65
2023/06/03 12:32:51;;;;;;;13.18;11.13;;;;;;;-145.79;27.27;76949.13;5285728;28;20514;-67
2023/06/03 12:35:27;;;;;;;8.57;2.17;;;;;;;-145.79;26.66;76989.41;5290965;28;20077;-67
2023/06/03 12:38:05;;;;;;;2.15;1.45;;;;;;;-145.79;26.93;76959.72;5305494;28;20425;-66
2023/06/03 12:40:37;;;;;;;3.85;1.70;;;;;;;-145.79;27.38;76949.13;5306682;28;20027;-65
2023/06/03 12:43:21;;;;;;;5.68;1.58;;;;;;;-145.79;26.92;76961.84;5311938;28;20039;-65
2023/06/03 12:45:53;;;;;;;4.32;2.60;;;;;;;-145.79;26.88;76961.84;5327397;28;20443;-65
2023/06/03 12:48:28;;;;;;;2.15;1.40;;;;;;;-145.79;26.88;76940.66;5289039;28;20104;-65
2023/06/03 12:51:02;;;;;;;4.70;1.63;;;;;;;-145.79;27.61;76921.59;5302741;28;20052;-66
2023/06/03 12:53:33;;;;;;;2.63;1.40;;;;;;;-145.79;26.97;76917.34;5289640;28;20028;-67
2023/06/03 12:56:05;;;;;;;6.57;4.70;;;;;;;-145.79;27.29;76910.97;5284589;28;20570;-66
2023/06/03 12:58:37;;;;;;;6.88;5.22;;;;;;;-145.79;26.85;76915.22;5284269;28;20051;-66
2023/06/03 13:01:09;;;;;;;3.08;2.25;;;;;;;-145.79;26.54;76889.78;5289361;28;20024;-68
2023/06/03 13:03:40;;;;;;;5.63;2.05;;;;;;;-145.79;26.19;76898.25;5300492;28;20146;-66
2023/06/03 13:06:11;;;;;;;2.75;1.50;;;;;;;-145.79;26.46;76881.31;5279657;28;20024;-66
2023/06/03 13:08:43;;;;;;;3.20;1.40;;;;;;;-145.79;27.13;76877.06;5300807;28;20111;-66
2023/06/03 13:11:14;;;;;;;12.05;10.80;;;;;;;-145.79;26.73;76868.59;5285251;28;20109;-67
2023/06/03 13:13:46;;;;;;;3.15;1.65;;;;;;;-145.79;26.38;76877.06;5283065;28;20109;-65
2023/06/03 13:16:17;;;;;;;2.08;1.40;;;;;;;-145.79;26.17;76858.00;5285598;28;20065;-68
2023/06/03 13:18:48;;;;;;;1.92;1.63;;;;;;;-145.79;26.13;76851.63;5290598;28;20027;-66
2023/06/03 13:21:20;;;;;;;5.28;1.80;;;;;;;-145.79;26.19;76838.94;5291671;28;20492;-67
2023/06/03 13:23:53;;;;;;;2.83;1.60;;;;;;;-145.79;26.53;76828.31;5282386;28;20048;-67
2023/06/03 13:26:25;;;;;;;4.05;1.80;;;;;;;-145.79;26.74;76824.09;5292385;28;20024;-67
2023/06/03 13:28:56;;;;;;;3.33;1.67;;;;;;;-145.79;25.74;76828.31;5282585;28;20016;-66
2023/06/03 13:31:28;;;;;;;2.28;1.50;;;;;;;-145.79;27.32;76800.78;5294671;28;20036;-67
2023/06/03 13:33:59;;;;;;;2.47;1.75;;;;;;;-145.79;25.95;76813.50;5301692;28;20111;-67
2023/06/03 13:36:30;;;;;;;2.65;1.48;;;;;;;-145.79;26.50;76826.22;5302994;28;20028;-66
2023/06/03 13:39:03;;;;;;;2.65;1.30;;;;;;;-145.79;27.63;76800.78;5300971;28;20047;-67
2023/06/03 13:41:34;;;;;;;1.60;1.40;;;;;;;-145.79;26.27;76785.94;5305146;28;20482;-67
2023/06/03 13:44:05;;;;;;;3.78;2.10;;;;;;;-145.79;27.04;76762.63;5299193;28;20056;-67
2023/06/03 13:46:37;;;;;;;2.53;1.45;;;;;;;-145.79;26.36;76754.16;5281374;28;20423;-67
2023/06/03 13:49:08;;;;;;;6.13;5.15;;;;;;;-145.79;26.05;76754.16;5281628;28;20056;-66
2023/06/03 13:51:39;;;;;;;3.58;2.05;;;;;;;-145.79;26.16;76737.19;5294759;28;20039;-67
2023/06/03 13:54:11;;;;;;;3.47;2.80;;;;;;;-145.79;25.91;76758.38;5301701;28;20031;-67
2023/06/03 13:56:44;;;;;;;9.93;8.98;;;;;;;-145.79;26.63;76775.34;5285131;28;20073;-66
2023/06/03 13:59:17;;;;;;;3.13;2.28;;;;;;;-145.79;25.70;76760.50;5296874;28;20020;-67
2023/06/03 14:01:51;;;;;;;6.25;2.35;;;;;;;-145.79;25.72;76758.38;5294203;28;20052;-66
2023/06/03 14:04:22;;;;;;;3.47;1.70;;;;;;;-145.79;25.91;76745.69;5283676;28;20027;-66
2023/06/03 14:06:54;;;;;;;3.58;1.70;;;;;;;-145.79;26.53;76732.97;5282443;28;20028;-66
2023/06/03 14:09:25;;;;;;;3.22;2.33;;;;;;;-145.79;26.00;76739.31;5284332;28;20108;-65
2023/06/03 14:11:56;;;;;;;13.20;8.98;;;;;;;-145.79;25.96;76732.97;5284074;28;20024;-65
2023/06/03 14:14:28;;;;;;;7.32;2.22;;;;;;;-145.79;25.88;76711.75;5283504;28;20430;-65
2023/06/03 14:16:59;;;;;;;2.88;1.33;;;;;;;-145.79;25.32;76713.88;5283081;28;20016;-66
2023/06/03 14:19:33;;;;;;;3.47;2.13;;;;;;;-145.79;25.37;76699.06;5283374;28;20017;-66
2023/06/03 14:22:05;;;;;;;2.03;1.70;;;;;;;-145.79;25.27;76720.25;5281616;28;20056;-65
2023/06/03 14:24:36;;;;;;;3.08;2.75;;;;;;;-145.79;25.60;76679.97;5292437;28;20463;-66
2023/06/03 14:27:07;;;;;;;2.33;1.50;;;;;;;-145.79;25.19;76684.22;5304550;28;20035;-66
2023/06/03 14:29:39;;;;;;;2.95;1.40;;;;;;;-145.79;25.09;76688.44;5297982;28;20040;-67
2023/06/03 14:32:10;;;;;;;3.95;1.58;;;;;;;-145.79;25.62;76699.06;5282446;28;20047;-67
2023/06/03 14:34:41;;;;;;;21.30;19.13;;;;;;;-145.79;25.34;76688.44;5283132;28;20029;-67
2023/06/03 14:37:13;;;;;;;4.30;2.30;;;;;;;-145.79;24.85;76682.09;5282221;28;20044;-65
2023/06/03 14:39:45;;;;;;;2.58;1.40;;;;;;;-145.79;25.03;76675.75;5283500;28;20048;-71
2023/06/03 14:42:16;;;;;;;3.85;1.50;;;;;;;-145.79;25.29;76660.91;5293531;28;20114;-72
2023/06/03 14:44:48;;;;;;;2.58;1.40;;;;;;;-145.79;25.53;76639.72;5290311;28;20388;-71
2023/06/03 14:47:19;;;;;;;3.78;1.10;;;;;;;-145.79;24.86;76646.06;5287230;28;20444;-73
2023/06/03 14:49:51;;;;;;;3.85;2.65;;;;;;;-145.79;24.48;76639.72;5304086;28;20020;-71
2023/06/03 14:52:22;;;;;;;3.42;1.25;;;;;;;-145.79;24.40;76639.72;5303881;28;20136;-70
2023/06/03 14:54:55;;;;;;;4.45;1.27;;;;;;;-145.79;24.62;76648.19;5303973;28;20443;-68
2023/06/03 14:57:26;;;;;;;4.47;1.85;;;;;;;-145.79;24.40;76627.00;5289480;28;20468;-70
2023/06/03 14:59:57;;;;;;;3.42;1.40;;;;;;;-145.79;24.27;76605.81;5282887;28;20105;-68
2023/06/03 15:02:29;;;;;;;2.65;1.50;;;;;;;-145.79;24.31;76605.81;5285375;28;20578;-68
2023/06/03 15:05:00;;;;;;;3.28;1.33;;;;;;;-145.79;24.66;76597.31;5303304;28;20026;-68
2023/06/03 15:07:33;;;;;;;1.30;1.15;;;;;;;-145.79;24.15;76603.69;5303694;28;20032;-69
2023/06/03 15:10:05;;;;;;;3.08;2.20;;;;;;;-145.79;23.74;76633.34;5304047;28;20024;-69
2023/06/03 15:12:36;;;;;;;3.35;1.60;;;;;;;-145.79;24.13;76637.59;5301156;27;20039;-69
2023/06/03 15:15:08;;;;;;;3.67;1.13;;;;;;;-145.79;23.98;76624.88;5301568;28;20020;-69
2023/06/03 15:17:39;;;;;;;3.90;1.20;;;;;;;-145.79;24.58;76631.22;5300736;28;20076;-68
2023/06/03 15:20:11;;;;;;;4.70;1.63;;;;;;;-145.79;24.29;76624.88;5300761;28;20471;-67
2023/06/03 15:22:42;;;;;;;2.65;1.65;;;;;;;-145.79;24.35;76622.75;5301322;28;20426;-67
2023/06/03 15:25:14;;;;;;;5.28;1.80;;;;;;;-145.79;23.78;76648.19;5300576;28;20338;-67
2023/06/03 15:27:45;;;;;;;3.28;1.15;;;;;;;-145.79;24.29;76639.72;5303329;28;20078;-68
2023/06/03 15:30:16;;;;;;;2.42;1.23;;;;;;;-145.79;24.41;76633.34;5303520;28;20380;-68
2023/06/03 15:32:48;;;;;;;3.40;1.10;;;;;;;-145.79;25.20;76635.47;5302658;28;20161;-69
2023/06/03 15:35:20;;;;;;;3.63;1.20;;;;;;;-145.79;23.88;76690.56;5303704;28;20100;-69
2023/06/03 15:37:52;;;;;;;2.20;1.25;;;;;;;-145.79;24.13;76699.06;5303075;28;20021;-69
2023/06/03 15:40:23;;;;;;;2.50;1.50;;;;;;;-145.79;24.39;76669.38;5303051;28;20028;-70
2023/06/03 15:43:00;;;;;;;5.22;1.50;;;;;;;-145.79;24.61;76694.81;5290340;28;20043;-68
2023/06/03 15:45:31;;;;;;;2.78;1.25;;;;;;;-145.79;24.30;76677.84;5287973;28;20028;-67
2023/06/03 15:48:03;;;;;;;3.00;1.10;;;;;;;-145.79;24.34;76682.09;5304653;28;20040;-67
2023/06/03 15:50:35;;;;;;;1.65;1.10;;;;;;;-145.79;25.03;76669.38;5300108;28;20105;-68
2023/06/03 15:53:09;;;;;;;8.07;5.32;;;;;;;-145.79;25.22;76679.97;5292405;28;20029;-68
2023/06/03 15:55:41;;;;;;;4.78;2.20;;;;;;;-145.79;25.43;76677.84;5286108;28;20021;-68
2023/06/03 15:58:12;;;;;;;2.38;1.13;;;;;;;-145.79;25.02;76671.50;5288298;28;20074;-68
2023/06/03 16:00:43;;;;;;;1.50;1.15;;;;;;;-145.79;24.98;76686.34;5291128;28;20020;-68
2023/06/03 16:03:15;;;;;;;4.03;1.20;;;;;;;-145.79;24.55;76699.06;5306104;28;20538;-68
2023/06/03 16:05:46;;;;;;;3.70;1.30;;;;;;;-145.79;25.02;76658.78;5306375;28;20043;-68
2023/06/03 16:08:18;;;;;;;3.00;1.20;;;;;;;-145.79;24.68;76667.25;5296006;28;20029;-68
2023/06/03 16:10:49;;;;;;;6.45;1.40;;;;;;;-145.79;25.41;76686.34;5285643;28;20028;-70
2023/06/03 16:13:20;;;;;;;2.67;1.50;;;;;;;-145.79;25.11;76682.09;5295749;28;20039;-69
2023/06/03 16:15:52;;;;;;;2.95;1.10;;;;;;;-145.79;24.25;76707.53;5304691;28;20028;-68
2023/06/03 16:18:23;;;;;;;2.78;1.33;;;;;;;-145.79;24.46;76686.34;5305536;28;20065;-67
2023/06/03 16:20:58;;;;;;;2.30;1.23;;;;;;;-145.79;24.41;76669.38;5305140;28;20324;-68
2023/06/03 16:23:29;;;;;;;3.33;1.30;;;;;;;-145.79;24.00;76646.06;5305445;28;20028;-67
2023/06/03 16:26:01;;;;;;;1.17;1.08;;;;;;;-145.79;23.77;76684.22;5305619;28;20035;-68
2023/06/03 16:28:33;;;;;;;1.73;1.20;;;;;;;-145.79;23.91;76696.94;5293325;28;20089;-68
2023/06/03 16:31:04;;;;;;;2.42;1.38;;;;;;;-145.79;24.47;76660.91;5285900;28;20052;-68
2023/06/03 16:33:36;;;;;;;1.48;1.05;;;;;;;-145.79;24.27;76665.16;5304389;28;20032;-68
2023/06/03 16:36:07;;;;;;;3.20;1.20;;;;;;;-145.79;24.27;76686.34;5304864;28;20474;-68
2023/06/03 16:38:38;;;;;;;4.55;3.15;;;;;;;-145.79;24.56;76673.63;5305491;28;20031;-67
2023/06/03 16:41:10;;;;;;;5.25;1.90;;;;;;;-145.79;24.50;76677.84;5304732;28;20460;-67
2023/06/03 16:43:41;;;;;;;2.00;1.20;;;;;;;-145.79;24.22;76682.09;5304703;28;20096;-67
2023/06/03 16:46:12;;;;;;;3.75;1.65;;;;;;;-145.79;24.04;76667.25;5288191;28;20062;-67
2023/06/03 16:48:44;;;;;;;0.90;0.82;;;;;;;-145.79;23.19;76684.22;5283374;28;20052;-67
2023/06/03 16:51:15;;;;;;;1.33;1.00;;;;;;;-145.79;23.39;76643.94;5283256;28;20029;-67
2023/06/03 16:53:46;;;;;;;4.65;1.30;;;;;;;-145.79;23.61;76646.06;5282681;28;20048;-67
